Time;durP1;ratioP1;P1;durP2;ratioP2;P2;SDS_P1;SDS_P2;PMS_P1;PMS_P2;Temp;Humidity;BMP_temperature;BMP_pressure;BME280_temperature;BME280_humidity;BME280_pressure;Samples;Min_cycle;Max_cycle;Signal;HPM_P1;HPM_P2
2023/02/16 08:48:46;;;;;;;;;13.25;13.25;;;;;17.95;44.43;102312.50;5051466;27;45888;-70
2023/02/16 08:51:18;;;;;;;;;15.25;13.75;;;;;18.33;44.21;102313.81;5038957;27;45468;-70
2023/02/16 08:53:45;;;;;;;;;14.00;14.00;;;;;18.86;44.89;102314.09;5039130;27;45333;-70
2023/02/16 08:56:11;;;;;;;;;16.00;14.00;;;;;19.44;45.01;102311.25;5046172;28;45860;-70
2023/02/16 08:58:37;;;;;;;;;11.75;10.75;;;;;19.96;44.88;102295.19;5041529;28;45931;-70
2023/02/16 09:01:05;;;;;;;;;12.75;12.25;;;;;20.50;44.00;102300.44;5042547;27;45496;-71
2023/02/16 09:03:31;;;;;;;;;14.50;14.25;;;;;21.00;43.83;102307.69;5041036;28;45479;-70
2023/02/16 09:06:01;;;;;;;;;14.25;12.75;;;;;21.37;43.84;102310.34;5046302;28;45837;-71
2023/02/16 09:08:27;;;;;;;;;13.50;13.50;;;;;21.67;44.38;102306.25;5036289;28;46351;-71
2023/02/16 09:10:52;;;;;;;;;12.75;12.00;;;;;22.03;43.96;102325.19;5047824;28;45420;-73
2023/02/16 09:13:18;;;;;;;;;11.75;11.75;;;;;22.30;43.44;102320.41;5037468;28;45408;-74
2023/02/16 09:15:43;;;;;;;;;16.50;13.25;;;;;22.54;42.55;102316.75;5049716;28;45654;-75
2023/02/16 09:18:11;;;;;;;;;15.50;12.00;;;;;22.70;42.62;102301.03;5036891;28;48052;-74
2023/02/16 09:20:38;;;;;;;;;15.50;15.00;;;;;22.81;42.32;102291.16;5029341;28;45481;-75
2023/02/16 09:23:05;;;;;;;;;16.25;15.50;;;;;22.96;42.15;102310.66;5046071;28;45524;-72
2023/02/16 09:25:33;;;;;;;;;13.75;11.75;;;;;23.07;41.74;102321.50;5045681;28;45396;-72
2023/02/16 09:27:59;;;;;;;;;14.50;13.75;;;;;23.20;41.67;102331.28;5044949;28;46402;-72
2023/02/16 09:30:25;;;;;;;;;14.00;13.75;;;;;23.29;41.46;102327.81;5046301;28;45427;-72
2023/02/16 09:32:51;;;;;;;;;16.00;14.00;;;;;23.44;41.46;102336.53;5037483;28;45694;-72
2023/02/16 09:35:16;;;;;;;;;12.75;11.25;;;;;23.51;40.86;102334.19;5022820;28;45658;-77
2023/02/16 09:37:41;;;;;;;;;16.25;13.50;;;;;23.59;40.75;102336.22;5029430;28;45500;-72
2023/02/16 09:40:11;;;;;;;;;14.25;11.50;;;;;23.66;40.62;102342.84;5027479;28;45736;-73
2023/02/16 09:43:03;;;;;;;;;14.75;14.75;;;;;23.69;40.29;102345.28;5033585;28;45584;-77
2023/02/16 09:45:34;;;;;;;;;14.50;11.25;;;;;23.72;40.45;102346.88;5082842;27;45578;-79
2023/02/16 09:48:00;;;;;;;;;10.00;10.00;;;;;23.74;40.38;102351.19;5060213;27;45469;-72
2023/02/16 09:50:28;;;;;;;;;16.50;16.00;;;;;23.80;40.25;102349.81;5078934;27;45630;-71
2023/02/16 09:53:04;;;;;;;;;12.67;12.67;;;;;23.83;40.02;102352.25;5076937;27;45695;-72
2023/02/16 09:55:49;;;;;;;;;13.75;12.50;;;;;23.88;40.18;102347.31;5081098;27;45534;-71
2023/02/16 09:58:17;;;;;;;;;15.50;13.00;;;;;23.93;40.37;102350.47;5077269;27;45682;-70
2023/02/16 10:00:49;;;;;;;;;13.00;11.75;;;;;23.98;39.83;102338.38;5066050;27;45527;-70
2023/02/16 10:03:31;;;;;;;;;13.67;12.67;;;;;24.05;39.87;102347.69;5059742;27;45986;-70
2023/02/16 10:06:23;;;;;;;;;15.67;12.33;;;;;24.07;39.64;102341.13;5070664;27;45450;-70
2023/02/16 10:08:59;;;;;;;;;11.67;11.67;;;;;24.13;39.71;102345.19;5065589;27;45550;-70
2023/02/16 10:11:37;;;;;;;;;12.67;11.67;;;;;24.20;39.40;102356.38;5067871;27;45564;-70
2023/02/16 10:14:13;;;;;;;;;15.33;12.00;;;;;24.25;39.34;102358.69;5067739;27;46158;-70
2023/02/16 10:16:53;;;;;;;;;10.67;10.33;;;;;24.28;39.31;102356.53;5087501;27;45522;-70
2023/02/16 10:19:38;;;;;;;;;12.33;9.67;;;;;24.32;39.05;102360.72;5068728;27;47539;-70
2023/02/16 10:22:07;;;;;;;;;15.00;12.00;;;;;24.34;38.96;102352.44;5048268;27;45545;-73
2023/02/16 10:24:45;;;;;;;;;14.67;12.00;;;;;24.39;39.04;102361.03;5018913;28;45484;-74
2023/02/16 10:27:15;;;;;;;;;13.33;11.67;;;;;24.37;38.87;102356.75;5024533;28;45465;-74
2023/02/16 10:29:40;;;;;;;;;12.33;10.00;;;;;24.32;38.79;102358.00;5026476;28;45489;-74
2023/02/16 10:32:25;;;;;;;;;9.67;9.67;;;;;24.27;38.37;102352.13;5028322;28;45673;-74
2023/02/16 10:35:03;;;;;;;;;12.00;11.33;;;;;24.18;38.37;102358.34;5015182;28;45421;-74
2023/02/16 10:37:45;;;;;;;;;13.67;13.67;;;;;24.11;38.43;102349.88;5021838;28;46251;-74
2023/02/16 10:40:39;;;;;;;;;8.67;8.67;;;;;24.07;38.05;102351.09;5018996;28;46089;-74
2023/02/16 10:43:17;;;;;;;;;10.67;10.67;;;;;23.98;38.19;102346.50;5071958;27;45440;-74
2023/02/16 10:45:49;;;;;;;;;13.00;11.33;;;;;23.97;38.05;102351.06;5053798;28;45481;-74
2023/02/16 10:48:15;;;;;;;;;12.67;12.33;;;;;23.98;38.24;102357.34;5056462;27;45434;-75
2023/02/16 10:50:57;;;;;;;;;10.67;10.67;;;;;23.99;37.86;102357.19;5071253;27;46069;-74
2023/02/16 10:53:32;;;;;;;;;12.00;12.00;;;;;23.97;37.83;102361.91;5078163;27;45540;-74
2023/02/16 10:55:58;;;;;;;;;13.00;13.00;;;;;23.95;37.80;102363.91;5071844;28;46117;-74
2023/02/16 10:58:29;;;;;;;;;11.67;11.00;;;;;23.90;37.82;102355.28;5072216;27;45483;-74
2023/02/16 11:01:08;;;;;;;;;12.33;10.33;;;;;23.86;37.72;102351.97;5072028;28;45727;-75
2023/02/16 11:03:45;;;;;;;;;9.67;9.67;;;;;23.82;37.39;102348.69;5072047;28;45659;-74
2023/02/16 11:06:14;;;;;;;;;9.67;9.67;;;;;23.85;37.73;102347.56;5070965;27;45485;-74
2023/02/16 11:08:53;;;;;;;;;11.00;9.33;;;;;23.85;37.72;102338.53;5058308;27;45527;-74
2023/02/16 11:11:21;;;;;;;;;11.33;10.33;;;;;23.84;37.78;102343.13;5093515;27;47400;-73
2023/02/16 11:13:48;;;;;;;;;16.33;12.00;;;;;23.81;37.68;102333.41;5071249;27;45489;-74
2023/02/16 11:16:21;;;;;;;;;10.67;10.33;;;;;23.79;37.15;102335.38;5071317;27;45521;-74
2023/02/16 11:18:57;;;;;;;;;10.67;10.67;;;;;23.78;37.69;102343.63;5082463;27;45658;-74
2023/02/16 11:21:42;;;;;;;;;12.00;12.00;;;;;23.77;37.64;102341.91;5034567;28;46147;-74
2023/02/16 11:24:11;;;;;;;;;12.00;12.00;;;;;23.73;37.28;102335.91;5030880;28;45698;-74
2023/02/16 11:26:37;;;;;;;;;12.33;12.33;;;;;23.75;37.39;102333.91;5031632;28;45476;-74
2023/02/16 11:29:17;;;;;;;;;9.00;9.00;;;;;23.74;37.42;102334.06;5014819;28;45566;-74
2023/02/16 11:31:43;;;;;;;;;10.67;10.67;;;;;23.76;37.55;102329.38;5071058;27;45420;-74
2023/02/16 11:34:11;;;;;;;;;11.00;11.00;;;;;23.82;37.68;102336.97;5040650;28;45607;-74
2023/02/16 11:36:40;;;;;;;;;14.00;12.33;;;;;23.88;37.29;102332.88;5021896;27;45552;-74
2023/02/16 11:39:20;;;;;;;;;14.00;13.00;;;;;23.90;37.18;102337.16;5023886;28;45569;-73
2023/02/16 11:41:54;;;;;;;;;11.00;11.00;;;;;23.88;37.16;102335.59;5048711;28;46837;-73
2023/02/16 11:44:45;;;;;;;;;18.00;15.00;;;;;23.91;37.00;102335.34;5010568;28;45504;-72
2023/02/16 11:47:28;;;;;;;;;12.33;12.33;;;;;23.89;37.03;102324.63;5016120;28;46750;-72
2023/02/16 11:50:12;;;;;;;;;12.00;11.67;;;;;23.91;36.81;102321.78;5027633;27;45415;-72
2023/02/16 11:52:37;;;;;;;;;13.33;12.00;;;;;23.93;37.40;102317.06;5032595;28;46315;-72
2023/02/16 11:55:03;;;;;;;;;11.33;11.00;;;;;23.92;36.77;102307.22;5029583;28;45447;-72
2023/02/16 11:57:32;;;;;;;;;13.33;11.67;;;;;23.96;36.82;102311.38;5037393;28;45453;-72
2023/02/16 12:00:00;;;;;;;;;14.67;13.33;;;;;23.93;36.65;102306.22;5025560;28;45389;-72
2023/02/16 12:02:37;;;;;;;;;11.00;10.00;;;;;23.92;36.73;102302.63;5026191;28;46942;-72
2023/02/16 12:05:23;;;;;;;;;13.00;10.00;;;;;23.91;36.78;102303.63;5025956;28;45560;-72
2023/02/16 12:08:16;;;;;;;;;12.00;12.00;;;;;23.92;36.10;102299.91;5024233;28;45408;-72
2023/02/16 12:10:44;;;;;;;;;12.00;12.00;;;;;23.95;36.47;102304.25;5009416;28;45427;-76
2023/02/16 12:13:54;;;;;;;;;10.00;10.00;;;;;23.95;36.46;102307.81;5011281;28;45929;-81
2023/02/16 12:16:30;;;;;;;;;13.00;13.00;;;;;23.95;36.64;102296.13;5082680;27;45582;-74
2023/02/16 12:19:12;;;;;;;;;18.00;16.00;;;;;23.95;36.63;102299.66;5086831;27;45701;-73
2023/02/16 12:21:47;;;;;;;;;14.67;12.33;;;;;24.02;36.26;102291.84;5069101;27;45673;-73
2023/02/16 12:24:41;;;;;;;;;16.00;13.00;;;;;24.07;36.43;102281.47;5087894;27;46553;-72
2023/02/16 12:27:23;;;;;;;;;12.33;10.33;;;;;24.13;36.79;102273.81;5091625;27;45840;-73
2023/02/16 12:30:08;;;;;;;;;10.67;10.67;;;;;24.17;36.70;102258.97;5080848;27;45474;-73
2023/02/16 12:33:09;;;;;;;;;14.33;12.67;;;;;24.30;36.82;102267.75;5087400;27;45697;-73
2023/02/16 12:35:55;;;;;;;;;13.33;12.33;;;;;24.38;36.50;102255.34;5084419;27;46181;-73
2023/02/16 12:38:42;;;;;;;;;11.33;9.67;;;;;24.42;36.35;102256.78;5083760;27;45661;-71
2023/02/16 12:41:39;;;;;;;;;10.00;10.00;;;;;24.46;36.25;102264.53;5059319;27;45478;-74
2023/02/16 12:44:29;;;;;;;;;11.33;10.00;;;;;24.48;36.16;102258.94;5066557;27;45427;-73
2023/02/16 12:47:03;;;;;;;;;12.67;12.67;;;;;24.51;36.04;102263.22;5077737;27;45779;-74
2023/02/16 12:49:46;;;;;;;;;8.00;8.00;;;;;24.52;35.68;102256.81;5090432;27;45764;-71
2023/02/16 12:52:53;;;;;;;;;12.00;11.33;;;;;24.55;36.20;102251.97;5046434;27;45598;-71
2023/02/16 12:55:25;;;;;;;;;12.00;10.33;;;;;24.54;36.02;102250.25;5051246;27;45543;-73
2023/02/16 12:58:07;;;;;;;;;9.33;9.00;;;;;24.55;35.96;102248.38;5067640;27;46583;-75
2023/02/16 13:00:47;;;;;;;;;11.67;10.67;;;;;24.55;35.99;102251.97;5055416;27;46460;-74
2023/02/16 13:03:18;;;;;;;;;9.00;9.00;;;;;24.57;36.01;102254.53;5069666;27;46202;-74
2023/02/16 13:05:50;;;;;;;;;14.67;10.00;;;;;24.58;36.06;102248.13;5065025;27;45479;-72
2023/02/16 13:08:33;;;;;;;;;11.67;10.00;;;;;24.61;35.97;102245.97;5069531;27;46378;-72
2023/02/16 13:11:09;;;;;;;;;11.33;10.67;;;;;24.62;36.23;102238.69;5064413;27;45620;-71
2023/02/16 13:13:36;;;;;;;;;12.67;10.33;;;;;24.74;35.69;102253.00;5058742;27;47409;-72
2023/02/16 13:16:30;;;;;;;;;11.67;11.00;;;;;24.75;35.65;102257.44;5050340;27;45453;-71
2023/02/16 13:18:56;;;;;;;;;12.00;10.33;;;;;24.69;35.58;102242.56;5053862;27;45525;-72
2023/02/16 13:21:31;;;;;;;;;9.00;8.33;;;;;24.69;35.52;102241.72;5045819;27;45426;-71
2023/02/16 13:24:12;;;;;;;;;12.67;9.67;;;;;24.63;35.91;102234.97;5062990;27;45524;-71
2023/02/16 13:26:56;;;;;;;;;11.00;9.33;;;;;24.61;35.33;102234.28;5065084;27;45436;-69
2023/02/16 13:29:47;;;;;;;;;11.00;10.67;;;;;24.53;35.42;102224.13;5043463;28;45600;-69
2023/02/16 13:32:33;;;;;;;;;9.00;9.00;;;;;24.52;35.43;102233.22;5018735;28;46167;-76
2023/02/16 13:35:05;;;;;;;;;9.67;9.00;;;;;24.54;35.31;102239.41;5019007;27;45550;-74
2023/02/16 13:37:46;;;;;;;;;8.00;8.00;;;;;24.52;35.57;102232.41;5029314;28;46056;-74
2023/02/16 13:40:20;;;;;;;;;8.00;8.00;;;;;24.50;35.45;102232.53;5015318;27;46305;-75
2023/02/16 13:42:57;;;;;;;;;10.33;10.33;;;;;24.49;35.44;102236.25;5026891;28;47483;-73
2023/02/16 13:45:28;;;;;;;;;10.00;10.00;;;;;24.46;35.15;102231.09;5021390;28;45516;-73
2023/02/16 13:47:55;;;;;;;;;10.33;9.00;;;;;24.45;35.35;102238.34;5021749;28;46474;-75
2023/02/16 13:50:21;;;;;;;;;9.00;9.00;;;;;24.46;35.11;102236.50;5042189;27;46611;-76
2023/02/16 13:52:47;;;;;;;;;9.33;9.33;;;;;24.46;35.44;102239.22;5028975;28;45727;-75
2023/02/16 13:55:29;;;;;;;;;9.67;8.67;;;;;24.46;35.33;102228.38;5027378;28;45732;-73
2023/02/16 13:58:00;;;;;;;;;10.00;9.00;;;;;24.46;35.36;102218.38;5028071;28;45436;-73
2023/02/16 14:00:32;;;;;;;;;10.33;9.33;;;;;24.48;35.56;102216.38;5024996;28;46955;-74
2023/02/16 14:03:01;;;;;;;;;10.67;9.67;;;;;24.50;35.59;102216.25;5023830;27;45720;-74
2023/02/16 14:05:29;;;;;;;;;10.33;10.00;;;;;24.55;35.72;102207.66;5016789;27;45739;-74
2023/02/16 14:08:28;;;;;;;;;8.00;7.67;;;;;24.59;35.60;102207.25;5026819;28;45406;-73
2023/02/16 14:10:56;;;;;;;;;11.00;9.00;;;;;24.66;35.54;102206.69;5036864;27;46489;-72
2023/02/16 14:13:36;;;;;;;;;10.00;9.00;;;;;24.71;35.60;102207.13;5008321;27;45433;-71
2023/02/16 14:16:08;;;;;;;;;10.00;7.33;;;;;24.72;35.73;102198.84;5026730;28;45354;-71
2023/02/16 14:18:42;;;;;;;;;10.33;9.00;;;;;24.77;35.46;102192.13;5024999;28;45491;-74
2023/02/16 14:21:40;;;;;;;;;6.67;6.67;;;;;24.76;35.35;102182.28;5024675;28;46151;-72
2023/02/16 14:24:12;;;;;;;;;9.33;9.00;;;;;24.86;35.55;102200.31;5027353;28;45749;-72
2023/02/16 14:27:05;;;;;;;;;7.67;7.00;;;;;24.89;35.40;102191.00;5025285;28;45651;-71
2023/02/16 14:29:43;;;;;;;;;14.33;12.00;;;;;24.86;35.73;102189.44;5006910;27;45722;-74
2023/02/16 14:32:08;;;;;;;;;7.00;7.00;;;;;24.92;35.48;102189.88;5033385;28;46464;-69
2023/02/16 14:34:51;;;;;;;;;9.67;9.00;;;;;24.91;35.72;102201.75;5028795;28;45549;-70
2023/02/16 14:37:16;;;;;;;;;10.00;10.00;;;;;24.93;35.47;102207.91;5028003;28;45552;-70
2023/02/16 14:39:44;;;;;;;;;8.00;8.00;;;;;24.93;35.40;102199.75;5028424;28;45623;-70
2023/02/16 14:42:16;;;;;;;;;8.00;7.00;;;;;24.93;35.38;102200.59;5029751;28;45705;-68
2023/02/16 14:45:02;;;;;;;;;9.00;7.67;;;;;24.94;35.69;102196.03;5019262;28;45580;-70
2023/02/16 14:47:30;;;;;;;;;10.67;9.00;;;;;24.93;35.26;102200.59;5051252;27;45405;-69
2023/02/16 14:50:02;;;;;;;;;26.00;24.00;;;;;24.93;35.40;102194.31;5017845;27;45457;-72
2023/02/16 14:52:49;;;;;;;;;18.67;16.67;;;;;24.91;35.42;102186.31;5034877;28;46112;-71
2023/02/16 14:55:44;;;;;;;;;16.33;13.00;;;;;24.85;35.64;102174.16;5006567;28;45768;-73
2023/02/16 14:58:42;;;;;;;;;14.00;14.00;;;;;24.84;35.62;102186.03;5017957;28;45375;-73
2023/02/16 15:01:15;;;;;;;;;14.67;12.00;;;;;24.81;35.31;102194.41;5022982;28;45717;-74
2023/02/16 15:03:49;;;;;;;;;18.33;14.67;;;;;24.78;35.42;102181.13;5025911;28;45493;-71
2023/02/16 15:06:21;;;;;;;;;16.33;15.33;;;;;24.80;35.38;102190.00;5022826;28;45395;-73
2023/02/16 15:08:59;;;;;;;;;15.33;13.00;;;;;24.81;35.47;102190.84;5022011;27;45536;-72
2023/02/16 15:11:34;;;;;;;;;16.67;14.33;;;;;24.81;35.97;102191.69;5023580;27;45699;-72
2023/02/16 15:14:09;;;;;;;;;16.33;14.67;;;;;24.82;35.44;102184.41;5020735;28;46025;-72
2023/02/16 15:16:37;;;;;;;;;13.00;12.33;;;;;24.84;35.46;102179.72;5022922;28;45405;-72
2023/02/16 15:19:09;;;;;;;;;13.00;10.33;;;;;24.83;35.37;102178.88;5026390;27;45453;-72
2023/02/16 15:21:34;;;;;;;;;16.67;13.67;;;;;24.81;35.73;102193.56;5017615;28;45580;-72
2023/02/16 15:24:00;;;;;;;;;14.00;13.33;;;;;24.82;35.47;102189.84;5015372;28;47194;-72
2023/02/16 15:26:34;;;;;;;;;16.00;16.00;;;;;24.85;35.45;102209.47;5020037;28;45494;-73
2023/02/16 15:29:19;;;;;;;;;14.00;13.33;;;;;24.86;35.66;102204.91;5026606;28;45677;-73
2023/02/16 15:31:45;;;;;;;;;13.33;12.67;;;;;24.88;35.65;102199.31;5029133;28;45633;-72
2023/02/16 15:34:13;;;;;;;;;14.67;13.67;;;;;24.86;35.55;102196.75;5016854;28;46057;-71
2023/02/16 15:36:44;;;;;;;;;12.33;12.33;;;;;24.88;35.48;102210.19;5028139;28;45430;-71
2023/02/16 15:39:30;;;;;;;;;11.00;8.33;;;;;24.89;35.33;102204.59;5022936;28;45500;-71
2023/02/16 15:42:17;;;;;;;;;11.33;11.00;;;;;24.90;35.55;102210.88;5029635;28;45392;-71
2023/02/16 15:44:43;;;;;;;;;11.67;11.00;;;;;24.90;35.39;102203.63;5017954;28;46939;-71
2023/02/16 15:47:28;;;;;;;;;14.67;12.67;;;;;24.87;35.36;102209.31;5031374;28;45416;-71
2023/02/16 15:49:54;;;;;;;;;12.33;12.33;;;;;24.82;35.21;102209.72;5049479;27;45420;-71
2023/02/16 15:52:32;;;;;;;;;11.00;9.00;;;;;24.78;35.35;102204.72;5049597;27;45413;-71
2023/02/16 15:55:00;;;;;;;;;13.00;13.00;;;;;24.73;35.14;102213.28;5024910;28;45528;-74
2023/02/16 15:57:34;;;;;;;;;16.67;15.00;;;;;24.68;35.05;102199.28;5049988;27;45470;-70
2023/02/16 16:00:18;;;;;;;;;11.00;11.00;;;;;24.68;35.05;102196.56;5027410;27;45506;-67
2023/02/16 16:02:53;;;;;;;;;13.00;10.67;;;;;24.69;34.95;102196.41;5038961;28;46933;-69
2023/02/16 16:05:57;;;;;;;;;12.33;12.33;;;;;24.77;35.54;102208.44;5033615;27;47616;-69
2023/02/16 16:08:25;;;;;;;;;13.33;12.00;;;;;24.82;35.25;102189.84;5015161;28;45576;-69
2023/02/16 16:10:52;;;;;;;;;12.00;11.00;;;;;24.91;35.50;102194.47;5021606;28;45405;-71
2023/02/16 16:13:21;;;;;;;;;13.00;12.33;;;;;24.99;35.36;102196.47;5026764;28;45476;-71
2023/02/16 16:15:48;;;;;;;;;14.33;11.33;;;;;25.04;35.20;102204.16;5025193;28;45975;-72
2023/02/16 16:18:45;;;;;;;;;13.00;13.00;;;;;25.09;35.30;102204.63;5031610;28;45449;-71
2023/02/16 16:21:32;;;;;;;;;20.67;18.67;;;;;25.14;35.59;102205.03;5032107;27;45416;-72
2023/02/16 16:24:02;;;;;;;;;27.00;25.50;;;;;25.17;35.13;102212.88;5022730;28;45629;-71
2023/02/16 16:26:31;;;;;;;;;23.00;22.00;;;;;25.18;34.88;102192.00;5024437;28;45742;-68
2023/02/16 16:28:57;;;;;;;;;18.00;18.00;;;;;25.18;35.23;102205.59;5029074;28;45378;-73
2023/02/16 16:31:22;;;;;;;;;14.00;13.00;;;;;25.19;35.14;102207.31;5028730;28;45295;-73
2023/02/16 16:33:55;;;;;;;;;16.67;14.67;;;;;25.20;35.24;102214.44;5029917;28;45272;-72
2023/02/16 16:36:28;;;;;;;;;16.00;15.67;;;;;25.17;35.13;102203.91;5016906;28;45643;-72
2023/02/16 16:39:17;;;;;;;;;19.67;16.67;;;;;25.18;35.05;102198.28;5030485;28;45455;-73
2023/02/16 16:42:13;;;;;;;;;16.33;15.00;;;;;25.20;35.24;102193.59;5019903;27;45388;-71
2023/02/16 16:44:41;;;;;;;;;14.00;13.33;;;;;25.18;34.81;102186.59;5032714;27;45757;-68
2023/02/16 16:47:23;;;;;;;;;12.67;12.67;;;;;25.21;35.05;102197.13;5016204;28;46401;-69
2023/02/16 16:50:00;;;;;;;;;18.67;14.67;;;;;25.23;34.89;102192.44;5017558;27;46056;-69
2023/02/16 16:52:45;;;;;;;;;16.67;14.00;;;;;25.22;35.26;102188.00;5014973;28;45429;-71
